Time;durP1;ratioP1;P1;durP2;ratioP2;P2;SDS_P1;SDS_P2;PMS_P1;PMS_P2;Temp;Humidity;BMP_temperature;BMP_pressure;BME280_temperature;BME280_humidity;BME280_pressure;Samples;Min_cycle;Max_cycle;Signal;HPM_P1;HPM_P2
2023/02/09 00:01:10;;;;;;;3.90;3.50;;;;;;;;;;4535525;28;20133;-69
2023/02/09 00:03:21;;;;;;;3.60;3.30;;;;;;;;;;4536528;28;20187;-68
2023/02/09 00:05:31;;;;;;;3.85;3.50;;;;;;;;;;4537288;28;20549;-68
2023/02/09 00:07:42;;;;;;;3.30;3.00;;;;;;;;;;4508309;28;20049;-69
2023/02/09 00:09:52;;;;;;;3.45;3.15;;;;;;;;;;4503240;28;20080;-69
2023/02/09 00:14:33;;;;;;;3.53;3.22;;;;;;;;;;4536446;28;20060;-69
2023/02/09 00:16:43;;;;;;;3.28;2.97;;;;;;;;;;4536052;28;20841;-68
2023/02/09 00:18:56;;;;;;;3.88;3.45;;;;;;;;;;4517228;28;20029;-68
2023/02/09 00:21:07;;;;;;;3.92;3.53;;;;;;;;;;4535880;28;20840;-68
2023/02/09 00:23:18;;;;;;;3.70;3.22;;;;;;;;;;4536231;28;20056;-68
2023/02/09 00:25:28;;;;;;;4.18;3.63;;;;;;;;;;4535489;28;20119;-68
2023/02/09 00:27:38;;;;;;;4.00;3.40;;;;;;;;;;4535709;28;20131;-68
2023/02/09 00:29:49;;;;;;;4.00;3.60;;;;;;;;;;4518934;28;20104;-68
2023/02/09 00:32:00;;;;;;;4.20;3.80;;;;;;;;;;4535856;28;20040;-68
2023/02/09 00:34:10;;;;;;;4.25;3.80;;;;;;;;;;4517236;28;20140;-68
2023/02/09 00:36:21;;;;;;;3.72;3.42;;;;;;;;;;4518007;28;20044;-68
2023/02/09 00:38:32;;;;;;;3.90;3.50;;;;;;;;;;4518571;28;20033;-68
2023/02/09 00:40:42;;;;;;;3.90;3.50;;;;;;;;;;4532496;28;20040;-68
2023/02/09 00:42:53;;;;;;;3.90;3.50;;;;;;;;;;4536335;28;20032;-68
2023/02/09 00:45:03;;;;;;;4.30;3.90;;;;;;;;;;4535642;28;20025;-68
2023/02/09 00:47:13;;;;;;;4.05;3.65;;;;;;;;;;4534944;28;20123;-68
2023/02/09 00:49:24;;;;;;;4.10;3.70;;;;;;;;;;4536232;28;20053;-68
2023/02/09 00:51:34;;;;;;;4.03;3.63;;;;;;;;;;4536310;28;20183;-68
2023/02/09 00:53:45;;;;;;;4.13;3.72;;;;;;;;;;4535710;28;20091;-68
2023/02/09 00:55:56;;;;;;;4.20;3.78;;;;;;;;;;4512291;28;20025;-68
2023/02/09 00:58:06;;;;;;;4.45;3.95;;;;;;;;;;4534357;28;20044;-68
2023/02/09 01:00:18;;;;;;;4.10;3.70;;;;;;;;;;4534081;28;20572;-67
2023/02/09 01:02:28;;;;;;;4.10;3.70;;;;;;;;;;4534872;28;20118;-68
2023/02/09 01:04:39;;;;;;;4.03;3.58;;;;;;;;;;4534726;28;20413;-68
2023/02/09 01:06:49;;;;;;;3.90;3.50;;;;;;;;;;4534230;28;20412;-68
2023/02/09 01:09:00;;;;;;;3.53;3.22;;;;;;;;;;4534766;28;20029;-68
2023/02/09 01:11:11;;;;;;;3.53;3.20;;;;;;;;;;4535099;28;20040;-67
2023/02/09 01:13:22;;;;;;;4.07;3.67;;;;;;;;;;4534932;28;20116;-67
2023/02/09 01:15:32;;;;;;;3.70;3.40;;;;;;;;;;4534292;28;20041;-68
2023/02/09 01:17:43;;;;;;;3.85;3.45;;;;;;;;;;4532340;28;20076;-68
2023/02/09 01:19:55;;;;;;;4.10;3.70;;;;;;;;;;4534020;28;20033;-68
2023/02/09 01:22:07;;;;;;;3.47;3.17;;;;;;;;;;4534298;28;20044;-68
2023/02/09 01:24:19;;;;;;;3.67;3.33;;;;;;;;;;4516506;28;20076;-68
2023/02/09 01:26:31;;;;;;;3.40;3.10;;;;;;;;;;4516309;28;20140;-68
2023/02/09 01:28:41;;;;;;;3.90;3.50;;;;;;;;;;4533808;28;20119;-68
2023/02/09 01:30:51;;;;;;;3.28;2.97;;;;;;;;;;4533946;28;20099;-68
2023/02/09 01:33:02;;;;;;;3.33;2.92;;;;;;;;;;4517701;28;20056;-68
2023/02/09 01:35:12;;;;;;;3.70;2.92;;;;;;;;;;4517385;28;20052;-68
2023/02/09 01:37:22;;;;;;;3.65;3.00;;;;;;;;;;4515574;28;20041;-68
2023/02/09 01:39:41;;;;;;;3.38;3.08;;;;;;;;;;4519493;28;20056;-68
2023/02/09 01:41:52;;;;;;;3.25;2.78;;;;;;;;;;4515474;28;20037;-68
2023/02/09 01:44:04;;;;;;;3.33;3.03;;;;;;;;;;4533156;28;20037;-68
2023/02/09 01:46:15;;;;;;;3.53;3.22;;;;;;;;;;4533336;28;20037;-68
2023/02/09 01:48:27;;;;;;;2.90;2.63;;;;;;;;;;4533204;28;20037;-68
2023/02/09 01:50:39;;;;;;;3.20;2.90;;;;;;;;;;4533827;28;20041;-68
2023/02/09 01:52:50;;;;;;;3.30;3.00;;;;;;;;;;4538485;28;20496;-68
2023/02/09 01:55:01;;;;;;;3.22;2.92;;;;;;;;;;4540003;28;20032;-68
2023/02/09 01:57:17;;;;;;;3.65;3.00;;;;;;;;;;4540151;28;20064;-68
2023/02/09 01:59:28;;;;;;;3.83;3.47;;;;;;;;;;4521546;28;20088;-68
2023/02/09 02:01:39;;;;;;;4.00;3.45;;;;;;;;;;4540129;28;20033;-68
2023/02/09 02:03:50;;;;;;;3.35;3.05;;;;;;;;;;4540045;28;20025;-68
2023/02/09 02:06:03;;;;;;;3.83;3.40;;;;;;;;;;4520930;28;20033;-68
2023/02/09 02:08:19;;;;;;;3.40;3.10;;;;;;;;;;4539490;28;20044;-68
2023/02/09 02:10:30;;;;;;;3.70;3.40;;;;;;;;;;4539727;28;20102;-68
2023/02/09 02:12:40;;;;;;;3.30;3.00;;;;;;;;;;4523208;28;20067;-68
2023/02/09 02:14:53;;;;;;;3.50;3.20;;;;;;;;;;4521638;28;20690;-68
2023/02/09 02:17:22;;;;;;;3.20;2.90;;;;;;;;;;4539435;28;20037;-68
2023/02/09 02:19:35;;;;;;;3.22;2.92;;;;;;;;;;4539790;28;20191;-68
2023/02/09 02:21:55;;;;;;;3.42;3.13;;;;;;;;;;4540118;28;20179;-68
2023/02/09 02:24:14;;;;;;;3.50;3.17;;;;;;;;;;4539752;28;20519;-68
2023/02/09 02:26:39;;;;;;;3.35;2.97;;;;;;;;;;4539616;28;20098;-68
2023/02/09 02:28:56;;;;;;;3.28;2.97;;;;;;;;;;4504512;28;20112;-68
2023/02/09 02:31:06;;;;;;;3.67;3.20;;;;;;;;;;4539512;28;20539;-68
2023/02/09 02:33:19;;;;;;;3.10;2.80;;;;;;;;;;4539559;28;20033;-68
2023/02/09 02:35:33;;;;;;;3.13;2.83;;;;;;;;;;4538204;28;20071;-66
2023/02/09 02:37:48;;;;;;;3.55;3.13;;;;;;;;;;4539627;28;20925;-68
2023/02/09 02:40:01;;;;;;;3.30;3.00;;;;;;;;;;4540265;28;20151;-68
2023/02/09 02:44:48;;;;;;;3.20;2.90;;;;;;;;;;4540019;28;20032;-68
2023/02/09 02:47:01;;;;;;;3.40;3.10;;;;;;;;;;4539994;28;20033;-68
2023/02/09 02:49:24;;;;;;;3.88;3.47;;;;;;;;;;4539928;28;20148;-68
2023/02/09 02:51:36;;;;;;;3.40;3.10;;;;;;;;;;4522526;28;20077;-68
2023/02/09 02:53:50;;;;;;;3.60;3.25;;;;;;;;;;4540071;28;20037;-68
2023/02/09 02:56:12;;;;;;;3.25;2.95;;;;;;;;;;4522611;28;21183;-67
2023/02/09 02:58:24;;;;;;;3.30;3.00;;;;;;;;;;4542331;28;20033;-68
2023/02/09 03:00:40;;;;;;;3.40;3.00;;;;;;;;;;4523672;28;20664;-67
2023/02/09 03:02:53;;;;;;;3.60;3.30;;;;;;;;;;4539768;28;20218;-67
2023/02/09 03:05:04;;;;;;;3.40;3.10;;;;;;;;;;4537981;28;20031;-67
2023/02/09 03:07:15;;;;;;;3.70;3.35;;;;;;;;;;4519214;28;20863;-67
2023/02/09 03:09:26;;;;;;;3.33;3.03;;;;;;;;;;4510024;28;20053;-68
2023/02/09 03:11:38;;;;;;;3.30;3.00;;;;;;;;;;4538283;28;20041;-68
2023/02/09 03:13:57;;;;;;;3.22;2.92;;;;;;;;;;4538337;28;20623;-67
2023/02/09 03:16:19;;;;;;;3.38;3.08;;;;;;;;;;4538237;28;21435;-67
2023/02/09 03:18:48;;;;;;;4.03;3.30;;;;;;;;;;4518962;28;20384;-67
2023/02/09 03:21:14;;;;;;;4.07;3.30;;;;;;;;;;4537883;28;20029;-68
2023/02/09 03:23:32;;;;;;;3.45;3.15;;;;;;;;;;4537647;28;20029;-67
2023/02/09 03:25:44;;;;;;;3.55;3.25;;;;;;;;;;4538390;28;20136;-68
2023/02/09 03:28:06;;;;;;;3.10;2.80;;;;;;;;;;4538089;28;20029;-68
2023/02/09 03:30:16;;;;;;;4.22;3.65;;;;;;;;;;4537303;28;20049;-67
2023/02/09 03:32:27;;;;;;;3.40;3.10;;;;;;;;;;4536861;28;20037;-67
2023/02/09 03:34:37;;;;;;;3.30;3.00;;;;;;;;;;4520418;28;20041;-68
2023/02/09 03:36:53;;;;;;;3.40;3.10;;;;;;;;;;4537907;28;20037;-68
2023/02/09 03:39:03;;;;;;;3.58;3.20;;;;;;;;;;4536775;28;20048;-68
2023/02/09 03:41:13;;;;;;;3.58;3.10;;;;;;;;;;4537076;28;20083;-68
2023/02/09 03:44:25;;;;;;;3.40;3.10;;;;;;;;;;4536784;28;20044;-68
2023/02/09 03:45:54;;;;;;;3.22;2.92;;;;;;;;;;4537177;28;20060;-68
2023/02/09 03:48:05;;;;;;;3.88;3.22;;;;;;;;;;4537047;28;20394;-68
2023/02/09 03:50:15;;;;;;;3.78;3.30;;;;;;;;;;4520299;28;20046;-68
2023/02/09 03:52:26;;;;;;;3.45;3.13;;;;;;;;;;4537442;28;20539;-68
2023/02/09 03:54:36;;;;;;;3.13;2.83;;;;;;;;;;4538152;28;20094;-67
2023/02/09 03:56:47;;;;;;;3.40;3.10;;;;;;;;;;4536404;28;20529;-67
2023/02/09 03:58:57;;;;;;;3.17;2.88;;;;;;;;;;4536821;28;20517;-68
2023/02/09 04:01:08;;;;;;;3.88;3.22;;;;;;;;;;4537031;28;20041;-68
2023/02/09 04:03:18;;;;;;;3.22;2.92;;;;;;;;;;4536204;28;20955;-68
2023/02/09 04:05:29;;;;;;;3.20;2.90;;;;;;;;;;4535979;28;20108;-68
2023/02/09 04:07:39;;;;;;;3.22;2.92;;;;;;;;;;4535976;28;20041;-68
2023/02/09 04:09:50;;;;;;;3.28;2.95;;;;;;;;;;4536536;28;20049;-68
2023/02/09 04:12:00;;;;;;;3.67;3.10;;;;;;;;;;4536942;28;20105;-68
2023/02/09 04:14:10;;;;;;;3.22;2.92;;;;;;;;;;4519537;28;20022;-68
2023/02/09 04:16:21;;;;;;;3.30;3.00;;;;;;;;;;4537754;28;20037;-68
2023/02/09 04:18:31;;;;;;;3.58;3.28;;;;;;;;;;4537080;28;20152;-68
2023/02/09 04:20:42;;;;;;;3.67;3.25;;;;;;;;;;4538611;28;20033;-68
2023/02/09 04:22:52;;;;;;;3.33;3.03;;;;;;;;;;4537611;28;20116;-68
2023/02/09 04:25:02;;;;;;;3.50;3.20;;;;;;;;;;4536586;28;20036;-68
2023/02/09 04:27:13;;;;;;;3.60;3.30;;;;;;;;;;4537206;28;20087;-68
2023/02/09 04:29:23;;;;;;;3.53;3.22;;;;;;;;;;4536744;28;20045;-68
2023/02/09 04:31:33;;;;;;;3.45;3.00;;;;;;;;;;4535412;28;20048;-68
2023/02/09 04:33:44;;;;;;;2.80;2.50;;;;;;;;;;4537770;28;20069;-68
2023/02/09 04:35:54;;;;;;;3.45;3.00;;;;;;;;;;4536681;28;20037;-68
2023/02/09 04:38:04;;;;;;;3.33;3.03;;;;;;;;;;4536321;28;20087;-68
2023/02/09 04:40:15;;;;;;;3.20;2.90;;;;;;;;;;4536634;28;20028;-68
2023/02/09 04:42:25;;;;;;;3.47;3.17;;;;;;;;;;4536337;28;20055;-68
2023/02/09 04:44:35;;;;;;;3.30;3.00;;;;;;;;;;4536419;28;20197;-68
2023/02/09 04:46:46;;;;;;;4.20;3.05;;;;;;;;;;4536189;28;20155;-67
2023/02/09 04:48:56;;;;;;;3.42;2.92;;;;;;;;;;4536103;28;20462;-68
2023/02/09 04:51:06;;;;;;;3.67;3.00;;;;;;;;;;4518419;28;20155;-68
2023/02/09 04:53:17;;;;;;;3.70;3.17;;;;;;;;;;4536542;28;20033;-68
2023/02/09 04:55:27;;;;;;;3.17;2.88;;;;;;;;;;4521167;28;20037;-68
2023/02/09 05:00:07;;;;;;;3.22;2.78;;;;;;;;;;4535057;28;20576;-68
2023/02/09 05:02:18;;;;;;;3.60;3.03;;;;;;;;;;4536346;28;20029;-68
2023/02/09 05:04:28;;;;;;;3.08;2.78;;;;;;;;;;4536167;28;20025;-68
2023/02/09 05:06:38;;;;;;;3.20;2.83;;;;;;;;;;4535919;28;20500;-68
2023/02/09 05:08:49;;;;;;;3.00;2.60;;;;;;;;;;4535594;28;20036;-68
2023/02/09 05:10:59;;;;;;;3.22;2.92;;;;;;;;;;4535829;28;20087;-68
2023/02/09 05:13:09;;;;;;;3.35;3.05;;;;;;;;;;4536344;28;20040;-68
2023/02/09 05:15:19;;;;;;;3.20;2.90;;;;;;;;;;4519864;28;20754;-68
2023/02/09 05:17:30;;;;;;;3.15;2.80;;;;;;;;;;4517467;28;20536;-68
2023/02/09 05:19:41;;;;;;;3.15;2.85;;;;;;;;;;4536597;28;20584;-68
2023/02/09 05:21:51;;;;;;;3.55;2.90;;;;;;;;;;4535799;28;20037;-68
2023/02/09 05:24:02;;;;;;;2.85;2.63;;;;;;;;;;4536027;28;20049;-68
2023/02/09 05:26:12;;;;;;;3.97;3.58;;;;;;;;;;4534763;28;20037;-68
2023/02/09 05:28:23;;;;;;;3.60;3.30;;;;;;;;;;4534942;28;20044;-68
2023/02/09 05:30:33;;;;;;;3.33;3.03;;;;;;;;;;4536173;28;20159;-68
2023/02/09 05:32:44;;;;;;;3.00;2.70;;;;;;;;;;4536795;28;20111;-68
2023/02/09 05:34:54;;;;;;;3.17;2.88;;;;;;;;;;4535530;28;20640;-68
2023/02/09 05:37:04;;;;;;;2.70;2.30;;;;;;;;;;4535048;28;20040;-69
2023/02/09 05:39:14;;;;;;;3.22;2.90;;;;;;;;;;4536517;28;20052;-68
2023/02/09 05:43:53;;;;;;;3.50;3.20;;;;;;;;;;4516938;28;20091;-68
2023/02/09 05:46:04;;;;;;;3.30;3.00;;;;;;;;;;4535735;28;20083;-68
2023/02/09 05:48:14;;;;;;;3.60;3.30;;;;;;;;;;4534779;28;20099;-68
2023/02/09 05:50:24;;;;;;;3.38;2.85;;;;;;;;;;4535312;28;20733;-68
2023/02/09 05:52:38;;;;;;;3.60;3.08;;;;;;;;;;4534381;28;20029;-68
2023/02/09 05:54:49;;;;;;;3.00;2.70;;;;;;;;;;4536661;28;20033;-68
2023/02/09 05:56:59;;;;;;;2.95;2.65;;;;;;;;;;4535882;28;20021;-69
2023/02/09 05:59:09;;;;;;;3.00;2.70;;;;;;;;;;4518584;28;20128;-69
2023/02/09 06:01:20;;;;;;;3.70;3.40;;;;;;;;;;4536405;28;20032;-68
2023/02/09 06:03:31;;;;;;;3.33;3.03;;;;;;;;;;4535233;28;20044;-68
2023/02/09 06:05:43;;;;;;;3.00;2.70;;;;;;;;;;4535548;28;20425;-68
2023/02/09 06:07:53;;;;;;;2.70;2.47;;;;;;;;;;4535834;28;20631;-68
2023/02/09 06:10:04;;;;;;;2.72;2.53;;;;;;;;;;4536500;28;20385;-68
2023/02/09 06:12:14;;;;;;;2.90;2.60;;;;;;;;;;4535969;28;20059;-68
2023/02/09 06:14:24;;;;;;;2.60;2.40;;;;;;;;;;4535345;28;20119;-68
2023/02/09 06:16:35;;;;;;;3.10;2.70;;;;;;;;;;4536412;28;20064;-68
2023/02/09 06:18:45;;;;;;;3.22;2.53;;;;;;;;;;4535891;28;20049;-69
2023/02/09 06:20:56;;;;;;;2.72;2.42;;;;;;;;;;4537055;28;20029;-68
2023/02/09 06:23:06;;;;;;;3.22;2.63;;;;;;;;;;4537370;28;20040;-68
2023/02/09 06:25:16;;;;;;;2.75;2.55;;;;;;;;;;4536075;28;20486;-68
2023/02/09 06:27:27;;;;;;;3.10;2.70;;;;;;;;;;4535853;28;20095;-68
2023/02/09 06:29:37;;;;;;;3.03;2.65;;;;;;;;;;4519923;28;20051;-68
2023/02/09 06:31:47;;;;;;;3.00;2.70;;;;;;;;;;4519023;28;20041;-68
2023/02/09 06:33:58;;;;;;;3.38;2.80;;;;;;;;;;4537453;28;20032;-68
2023/02/09 06:36:08;;;;;;;2.55;2.35;;;;;;;;;;4536254;28;20079;-68
2023/02/09 06:38:19;;;;;;;3.10;2.78;;;;;;;;;;4537269;28;20045;-69
2023/02/09 06:40:29;;;;;;;2.90;2.70;;;;;;;;;;4539937;28;20041;-68
2023/02/09 06:42:42;;;;;;;2.75;2.53;;;;;;;;;;4539631;28;20147;-68
2023/02/09 06:44:58;;;;;;;3.58;2.95;;;;;;;;;;4538184;28;20571;-68
2023/02/09 06:47:08;;;;;;;2.97;2.60;;;;;;;;;;4537228;28;20049;-68
2023/02/09 06:49:21;;;;;;;3.50;2.47;;;;;;;;;;4521181;28;20038;-68
2023/02/09 06:51:31;;;;;;;3.22;2.65;;;;;;;;;;4538571;28;20404;-68
2023/02/09 06:53:42;;;;;;;3.20;2.90;;;;;;;;;;4537899;28;20036;-68
2023/02/09 06:55:57;;;;;;;3.35;2.83;;;;;;;;;;4505075;28;20061;-67
2023/02/09 06:58:08;;;;;;;3.20;2.90;;;;;;;;;;4517862;28;20112;-67
2023/02/09 07:00:18;;;;;;;2.75;2.50;;;;;;;;;;4517653;28;20083;-69
2023/02/09 07:02:29;;;;;;;3.35;2.80;;;;;;;;;;4517096;28;20059;-69
2023/02/09 07:04:39;;;;;;;3.00;2.70;;;;;;;;;;4535893;28;20041;-69
2023/02/09 07:06:49;;;;;;;3.45;3.10;;;;;;;;;;4536548;28;20055;-70
2023/02/09 07:09:00;;;;;;;3.55;3.10;;;;;;;;;;4535326;28;20501;-70
2023/02/09 07:11:14;;;;;;;3.15;2.83;;;;;;;;;;4535186;28;20116;-70
2023/02/09 07:13:24;;;;;;;3.25;2.95;;;;;;;;;;4537337;28;20079;-71
2023/02/09 07:15:35;;;;;;;3.28;2.97;;;;;;;;;;4514761;28;20106;-70
2023/02/09 07:17:45;;;;;;;3.40;2.83;;;;;;;;;;4534008;28;20045;-70
2023/02/09 07:19:56;;;;;;;3.45;3.00;;;;;;;;;;4524256;28;20041;-71
2023/02/09 07:22:06;;;;;;;3.00;2.70;;;;;;;;;;4536962;28;20021;-70
2023/02/09 07:24:17;;;;;;;3.13;2.83;;;;;;;;;;4517415;28;20104;-70
2023/02/09 07:26:27;;;;;;;3.50;3.20;;;;;;;;;;4536302;28;20527;-70
2023/02/09 07:28:38;;;;;;;3.20;2.90;;;;;;;;;;4537295;28;20379;-70
2023/02/09 07:30:50;;;;;;;3.60;3.05;;;;;;;;;;4536086;28;20045;-70
2023/02/09 07:33:01;;;;;;;3.20;2.90;;;;;;;;;;4511219;28;20033;-70
2023/02/09 07:35:11;;;;;;;3.88;3.25;;;;;;;;;;4536346;28;20036;-71
2023/02/09 07:37:21;;;;;;;3.10;2.80;;;;;;;;;;4535992;28;20041;-70
2023/02/09 07:39:32;;;;;;;3.40;2.83;;;;;;;;;;4535390;28;20113;-70
2023/02/09 07:41:42;;;;;;;3.58;3.05;;;;;;;;;;4536074;28;20033;-70
2023/02/09 07:43:54;;;;;;;3.10;2.80;;;;;;;;;;4536380;28;20043;-70
2023/02/09 07:46:05;;;;;;;3.50;3.08;;;;;;;;;;4519288;28;20963;-70
2023/02/09 07:48:16;;;;;;;3.25;2.90;;;;;;;;;;4537443;28;20599;-70
2023/02/09 07:50:26;;;;;;;3.40;2.80;;;;;;;;;;4535275;28;20072;-70
2023/02/09 07:52:36;;;;;;;3.10;2.80;;;;;;;;;;4516885;28;20046;-71
2023/02/09 07:54:47;;;;;;;3.30;3.00;;;;;;;;;;4536085;28;20397;-70
2023/02/09 07:56:58;;;;;;;3.63;3.33;;;;;;;;;;4516554;28;20087;-71
2023/02/09 07:59:09;;;;;;;3.50;3.20;;;;;;;;;;4535333;28;20189;-70
2023/02/09 08:01:19;;;;;;;3.58;3.28;;;;;;;;;;4533862;28;20048;-70
2023/02/09 08:03:29;;;;;;;3.88;3.10;;;;;;;;;;4534992;28;20140;-70
2023/02/09 08:05:52;;;;;;;3.45;3.15;;;;;;;;;;4534471;28;20045;-70
2023/02/09 08:08:02;;;;;;;3.40;3.05;;;;;;;;;;4516272;28;20096;-71
2023/02/09 08:10:12;;;;;;;3.28;2.97;;;;;;;;;;4534142;28;20796;-71
2023/02/09 08:12:58;;;;;;;3.40;2.80;;;;;;;;;;4516622;28;20041;-71
2023/02/09 08:14:56;;;;;;;3.33;3.03;;;;;;;;;;4534343;28;20068;-71
2023/02/09 08:17:23;;;;;;;3.45;2.95;;;;;;;;;;4533231;28;20088;-57
2023/02/09 08:19:33;;;;;;;3.53;3.23;;;;;;;;;;4533302;28;20691;-58
2023/02/09 08:21:44;;;;;;;3.25;2.95;;;;;;;;;;4533630;28;20355;-60
2023/02/09 08:23:55;;;;;;;3.33;3.03;;;;;;;;;;4533542;28;20135;-61
2023/02/09 08:26:07;;;;;;;3.38;3.03;;;;;;;;;;4533404;28;20044;-64
2023/02/09 08:28:18;;;;;;;3.50;3.10;;;;;;;;;;4535443;28;20104;-74
2023/02/09 08:30:29;;;;;;;3.47;3.17;;;;;;;;;;4495440;28;20085;-73
2023/02/09 08:32:39;;;;;;;3.90;3.20;;;;;;;;;;4537059;28;20110;-73
2023/02/09 08:34:50;;;;;;;3.50;3.20;;;;;;;;;;4518409;28;20053;-74
2023/02/09 08:37:00;;;;;;;3.40;3.10;;;;;;;;;;4536351;28;20021;-74
2023/02/09 08:39:10;;;;;;;3.70;3.28;;;;;;;;;;4518890;28;20041;-74
2023/02/09 08:41:21;;;;;;;3.08;2.78;;;;;;;;;;4536693;28;20041;-74
2023/02/09 08:43:31;;;;;;;3.30;2.95;;;;;;;;;;4536799;28;20037;-74
2023/02/09 08:45:41;;;;;;;3.60;3.00;;;;;;;;;;4536795;28;20037;-74
2023/02/09 08:47:51;;;;;;;3.72;3.10;;;;;;;;;;4536141;28;20044;-74
2023/02/09 08:50:02;;;;;;;3.65;3.30;;;;;;;;;;4519306;28;20046;-73
2023/02/09 08:52:14;;;;;;;3.33;3.03;;;;;;;;;;4537524;28;20116;-73
2023/02/09 08:54:25;;;;;;;3.58;3.25;;;;;;;;;;4535549;28;20052;-73
2023/02/09 08:56:36;;;;;;;3.92;3.50;;;;;;;;;;4535476;28;20064;-73
2023/02/09 08:58:46;;;;;;;4.20;3.80;;;;;;;;;;4535159;28;20037;-74
2023/02/09 09:00:58;;;;;;;3.92;3.20;;;;;;;;;;4535087;28;20048;-74
2023/02/09 09:03:08;;;;;;;3.83;3.42;;;;;;;;;;4534311;28;20047;-75
2023/02/09 09:05:19;;;;;;;3.72;3.00;;;;;;;;;;4536041;28;20039;-74
2023/02/09 09:07:29;;;;;;;4.13;3.72;;;;;;;;;;4517296;28;20470;-75
2023/02/09 09:09:39;;;;;;;3.80;3.40;;;;;;;;;;4515718;28;20033;-75
2023/02/09 09:11:50;;;;;;;4.05;3.65;;;;;;;;;;4534517;28;20099;-75
2023/02/09 09:14:00;;;;;;;3.67;3.30;;;;;;;;;;4535027;28;20060;-74
2023/02/09 09:16:20;;;;;;;3.80;3.40;;;;;;;;;;4534290;28;20033;-74
2023/02/09 09:18:31;;;;;;;3.53;3.22;;;;;;;;;;4532950;28;20670;-74
2023/02/09 09:20:41;;;;;;;4.13;3.50;;;;;;;;;;4533949;28;20032;-75
2023/02/09 09:22:51;;;;;;;3.78;3.33;;;;;;;;;;4534642;28;20060;-74
2023/02/09 09:25:02;;;;;;;3.55;3.13;;;;;;;;;;4533788;28;20699;-74
2023/02/09 09:27:14;;;;;;;3.72;3.00;;;;;;;;;;4518138;28;20034;-74
2023/02/09 09:29:24;;;;;;;3.83;3.30;;;;;;;;;;4535063;28;20048;-75
2023/02/09 09:31:36;;;;;;;4.32;3.35;;;;;;;;;;4515549;28;20052;-75
2023/02/09 09:33:47;;;;;;;3.55;3.25;;;;;;;;;;4534704;28;20710;-75
2023/02/09 09:36:00;;;;;;;3.65;3.15;;;;;;;;;;4534911;28;20051;-75
2023/02/09 09:38:10;;;;;;;3.50;3.20;;;;;;;;;;4536016;28;21891;-75
2023/02/09 09:40:26;;;;;;;3.38;3.05;;;;;;;;;;4535668;28;20044;-77
2023/02/09 09:42:39;;;;;;;4.28;3.55;;;;;;;;;;4533816;28;20772;-59
2023/02/09 09:44:49;;;;;;;4.18;3.55;;;;;;;;;;4535120;28;20044;-65
2023/02/09 09:47:02;;;;;;;4.10;3.47;;;;;;;;;;4534731;28;20041;-62
2023/02/09 09:49:23;;;;;;;4.03;3.63;;;;;;;;;;4533467;28;20122;-68
2023/02/09 09:51:45;;;;;;;3.50;3.17;;;;;;;;;;4535176;28;20164;-68
2023/02/09 09:53:57;;;;;;;4.28;3.70;;;;;;;;;;4516878;28;20506;-68
2023/02/09 09:56:08;;;;;;;4.25;3.42;;;;;;;;;;4534553;28;20040;-68
2023/02/09 09:58:18;;;;;;;3.70;3.30;;;;;;;;;;4534611;28;20036;-68
2023/02/09 10:00:39;;;;;;;4.00;3.60;;;;;;;;;;4534508;28;20065;-68
2023/02/09 10:02:50;;;;;;;3.90;3.50;;;;;;;;;;4535225;28;20044;-69
2023/02/09 10:05:09;;;;;;;4.72;3.70;;;;;;;;;;4516276;28;20052;-74
2023/02/09 10:07:20;;;;;;;4.40;4.00;;;;;;;;;;4532782;28;20033;-73
2023/02/09 10:09:30;;;;;;;4.07;3.67;;;;;;;;;;4533942;28;20106;-64
2023/02/09 10:11:50;;;;;;;4.35;3.90;;;;;;;;;;4518216;28;20042;-73
2023/02/09 10:14:00;;;;;;;4.45;4.05;;;;;;;;;;4537146;28;20040;-73
2023/02/09 10:16:17;;;;;;;3.90;3.50;;;;;;;;;;4521199;28;21161;-75
2023/02/09 10:18:29;;;;;;;4.32;3.90;;;;;;;;;;4539351;28;20797;-73
2023/02/09 10:20:44;;;;;;;3.72;3.08;;;;;;;;;;4518041;28;20033;-72
2023/02/09 10:22:58;;;;;;;3.65;3.35;;;;;;;;;;4517437;28;20109;-73
2023/02/09 10:25:31;;;;;;;4.13;3.72;;;;;;;;;;4536798;28;20614;-73
2023/02/09 10:27:45;;;;;;;3.67;3.30;;;;;;;;;;4525400;28;21340;-73
2023/02/09 10:30:12;;;;;;;3.60;3.30;;;;;;;;;;4537272;28;20564;-73
2023/02/09 10:32:27;;;;;;;3.55;3.17;;;;;;;;;;4520884;28;20541;-73
2023/02/09 10:34:39;;;;;;;3.92;3.53;;;;;;;;;;4538619;28;20033;-73
2023/02/09 10:36:54;;;;;;;3.40;3.10;;;;;;;;;;4519243;28;20777;-73
2023/02/09 10:39:15;;;;;;;3.80;3.40;;;;;;;;;;4500132;28;20790;-73
2023/02/09 10:41:25;;;;;;;3.50;3.20;;;;;;;;;;4494228;28;20061;-73
2023/02/09 10:43:35;;;;;;;3.95;3.55;;;;;;;;;;4492965;28;20037;-73
2023/02/09 10:45:50;;;;;;;3.33;3.03;;;;;;;;;;4487641;28;20071;-73
2023/02/09 10:48:07;;;;;;;3.47;3.10;;;;;;;;;;4529380;28;20025;-74
2023/02/09 10:50:17;;;;;;;3.08;2.78;;;;;;;;;;4526587;28;20040;-73
2023/02/09 10:52:32;;;;;;;3.40;3.10;;;;;;;;;;4542177;28;20465;-73
2023/02/09 10:54:45;;;;;;;3.33;3.03;;;;;;;;;;4541724;28;20532;-79
2023/02/09 10:56:56;;;;;;;3.42;2.92;;;;;;;;;;4517811;28;20121;-79
2023/02/09 10:59:20;;;;;;;3.60;3.17;;;;;;;;;;4507051;28;20090;-79
2023/02/09 11:01:31;;;;;;;3.80;3.40;;;;;;;;;;4519219;28;20585;-79
2023/02/09 11:03:56;;;;;;;3.70;3.30;;;;;;;;;;4523138;28;20160;-79
2023/02/09 11:06:17;;;;;;;3.42;3.10;;;;;;;;;;4506955;28;20533;-79
2023/02/09 11:08:39;;;;;;;3.20;2.90;;;;;;;;;;4540027;28;20029;-79
2023/02/09 11:10:55;;;;;;;3.30;3.00;;;;;;;;;;4540952;28;20036;-79
2023/02/09 11:13:22;;;;;;;3.38;3.08;;;;;;;;;;4540494;28;20033;-79
2023/02/09 11:15:38;;;;;;;3.40;3.10;;;;;;;;;;4539218;28;20135;-79
2023/02/09 11:18:04;;;;;;;3.60;3.05;;;;;;;;;;4520844;28;20037;-79
2023/02/09 11:20:20;;;;;;;3.17;2.88;;;;;;;;;;4540702;28;20040;-79
2023/02/09 11:22:49;;;;;;;3.10;2.80;;;;;;;;;;4541492;28;20218;-78
2023/02/09 11:25:18;;;;;;;3.08;2.80;;;;;;;;;;4540457;28;20049;-78
2023/02/09 11:27:47;;;;;;;3.05;2.75;;;;;;;;;;4541877;28;20926;-79
2023/02/09 11:29:57;;;;;;;3.78;3.38;;;;;;;;;;4539768;28;20037;-78
2023/02/09 11:32:15;;;;;;;3.72;3.17;;;;;;;;;;4522475;28;20041;-79
2023/02/09 11:34:45;;;;;;;3.35;3.05;;;;;;;;;;4540355;28;20029;-79
2023/02/09 11:37:03;;;;;;;3.40;3.00;;;;;;;;;;4539821;28;20043;-79
2023/02/09 11:39:13;;;;;;;3.10;2.80;;;;;;;;;;4540499;28;20977;-78
2023/02/09 11:43:59;;;;;;;3.45;3.15;;;;;;;;;;4541021;28;20086;-78
2023/02/09 11:46:13;;;;;;;3.92;3.40;;;;;;;;;;4540097;28;20067;-78
2023/02/09 11:48:27;;;;;;;3.58;3.20;;;;;;;;;;4539838;28;20045;-79
2023/02/09 11:50:44;;;;;;;3.63;3.03;;;;;;;;;;4541151;28;20033;-79
2023/02/09 11:52:56;;;;;;;3.30;3.00;;;;;;;;;;4541006;28;20039;-78
2023/02/09 11:55:18;;;;;;;3.70;3.08;;;;;;;;;;4540749;28;20037;-78
2023/02/09 11:57:51;;;;;;;3.47;3.10;;;;;;;;;;4541588;28;20108;-78
2023/02/09 12:00:04;;;;;;;3.30;3.00;;;;;;;;;;4541098;28;20036;-78
2023/02/09 12:02:33;;;;;;;3.50;3.20;;;;;;;;;;4540719;28;20068;-78
2023/02/09 12:04:52;;;;;;;3.40;3.10;;;;;;;;;;4540666;28;20033;-78
2023/02/09 12:07:11;;;;;;;3.40;3.10;;;;;;;;;;4539893;28;20040;-78
2023/02/09 12:09:40;;;;;;;3.50;3.20;;;;;;;;;;4520956;28;20041;-78
2023/02/09 12:11:55;;;;;;;4.07;2.83;;;;;;;;;;4539864;28;20059;-78
2023/02/09 12:14:30;;;;;;;3.53;2.90;;;;;;;;;;4512405;28;20041;-78
2023/02/09 12:16:43;;;;;;;3.60;3.25;;;;;;;;;;4521937;28;20469;-78
2023/02/09 12:18:54;;;;;;;3.65;3.30;;;;;;;;;;4522173;28;20066;-78
2023/02/09 12:21:05;;;;;;;3.88;3.47;;;;;;;;;;4521490;28;20533;-77
2023/02/09 12:23:35;;;;;;;3.80;3.40;;;;;;;;;;4538614;28;20060;-78
2023/02/09 12:26:15;;;;;;;3.55;3.20;;;;;;;;;;4540840;28;20893;-78
2023/02/09 12:28:28;;;;;;;3.28;2.75;;;;;;;;;;4507762;28;20045;-77
2023/02/09 12:30:38;;;;;;;3.55;3.20;;;;;;;;;;4523050;28;20037;-76
2023/02/09 12:32:49;;;;;;;3.45;2.88;;;;;;;;;;4524372;28;20033;-76
2023/02/09 12:35:19;;;;;;;3.28;2.97;;;;;;;;;;4540252;28;20037;-76
2023/02/09 12:37:29;;;;;;;3.15;2.85;;;;;;;;;;4538664;28;20088;-76
2023/02/09 12:39:59;;;;;;;3.20;2.90;;;;;;;;;;4543453;28;20071;-76
2023/02/09 12:42:09;;;;;;;3.50;2.90;;;;;;;;;;4529104;28;20091;-75
2023/02/09 12:44:19;;;;;;;3.42;3.10;;;;;;;;;;4544674;28;20037;-75
2023/02/09 12:46:29;;;;;;;3.60;3.30;;;;;;;;;;4546927;28;20036;-75
2023/02/09 12:49:00;;;;;;;3.35;3.00;;;;;;;;;;4546442;28;20263;-76
2023/02/09 12:51:29;;;;;;;3.17;2.88;;;;;;;;;;4542121;28;20076;-75
2023/02/09 12:53:43;;;;;;;2.88;2.58;;;;;;;;;;4540561;28;20100;-75
2023/02/09 12:55:57;;;;;;;3.20;2.83;;;;;;;;;;4539877;28;20114;-75
2023/02/09 12:58:26;;;;;;;3.20;2.90;;;;;;;;;;4540493;28;20032;-75
2023/02/09 13:00:39;;;;;;;4.00;2.80;;;;;;;;;;4539872;28;20037;-75
2023/02/09 13:02:51;;;;;;;3.17;2.88;;;;;;;;;;4539951;28;20035;-75
2023/02/09 13:05:11;;;;;;;4.65;2.85;;;;;;;;;;4504923;28;20096;-76
2023/02/09 13:07:25;;;;;;;3.15;2.85;;;;;;;;;;4539320;28;20529;-75
2023/02/09 13:09:37;;;;;;;3.28;2.97;;;;;;;;;;4539637;28;20030;-75
2023/02/09 13:11:50;;;;;;;3.28;2.97;;;;;;;;;;4540822;28;20032;-75
2023/02/09 13:14:02;;;;;;;3.38;3.08;;;;;;;;;;4521604;28;20073;-76
2023/02/09 13:16:39;;;;;;;3.58;3.25;;;;;;;;;;4510129;28;20431;-76
2023/02/09 13:18:58;;;;;;;3.20;2.90;;;;;;;;;;4506815;28;20604;-75
2023/02/09 13:21:27;;;;;;;3.30;2.85;;;;;;;;;;4540504;28;20059;-76
2023/02/09 13:23:53;;;;;;;3.83;2.83;;;;;;;;;;4539716;28;20069;-75
2023/02/09 13:26:23;;;;;;;3.42;2.90;;;;;;;;;;4540123;28;20134;-76
2023/02/09 13:28:35;;;;;;;3.10;2.80;;;;;;;;;;4540181;28;20839;-76
2023/02/09 13:30:46;;;;;;;3.03;2.72;;;;;;;;;;4538879;28;20103;-75
2023/02/09 13:33:11;;;;;;;2.92;2.63;;;;;;;;;;4540039;28;20039;-76